Maynard, Arkansas
Current Conditions -  °F | °C
As of 4:35 AM on Saturday 22 Nov 2014 (Local Time) from K4M9 Reporting Station
Haze Haze  
Wind Chill: 36°   Ceiling: 7000
Heat Index: 36°   Visibility: 1.7mi
Dew Point: 36°   Wind: 0mph
Humidity: 100%   Direction: NA
Pressure: 30.22"   Gusts: NA
Location:  36.42°N, 90.9°W
Report Text: K4M9 221035Z AUTO 00000KT 1 3/4SM BR BKN070 02/02 A3022 RMK AO2
Loading
Personal Weather Stations






























Interactive Weather Map New forecast layout! Learn more

10-Day Weather Forecast

Advertisements
Track Severe Weather on mobile